createdAt,value
2023-01-27T00:02:46.375Z,4.51
2023-01-27T00:07:50.444Z,4.35
2023-01-27T00:13:12.800Z,4.22
2023-01-27T00:18:16.477Z,4.13
2023-01-27T00:23:43.827Z,4.05
2023-01-27T00:28:48.264Z,3.98
2023-01-27T00:33:54.367Z,3.95
2023-01-27T00:38:57.803Z,3.92
2023-01-27T00:44:01.901Z,3.89
2023-01-27T00:49:05.391Z,3.87
2023-01-27T00:54:09.073Z,3.86
2023-01-27T00:59:12.581Z,3.85
2023-01-27T01:04:18.834Z,3.84
2023-01-27T01:09:25.442Z,3.81
2023-01-27T01:14:28.820Z,3.80
2023-01-27T01:19:33.197Z,3.81
2023-01-27T01:24:43.302Z,3.81
2023-01-27T01:29:47.063Z,3.80
2023-01-27T01:34:50.443Z,3.80
2023-01-27T01:39:55.192Z,3.78
2023-01-27T01:45:27.992Z,3.74
2023-01-27T01:50:32.656Z,3.72
2023-01-27T01:55:38.042Z,3.72
2023-01-27T02:00:44.343Z,3.71
2023-01-27T02:05:48.150Z,3.72
2023-01-27T02:10:54.794Z,3.72
2023-01-27T02:15:58.355Z,3.72
2023-01-27T02:21:02.401Z,3.71
2023-01-27T02:26:19.851Z,3.71
2023-01-27T02:31:25.317Z,3.71
2023-01-27T02:36:32.059Z,3.71
2023-01-27T02:41:40.926Z,3.71
2023-01-27T02:46:44.588Z,3.70
2023-01-27T02:51:48.196Z,3.70
2023-01-27T02:56:52.097Z,3.71
2023-01-27T03:01:55.475Z,3.71
2023-01-27T03:06:59.055Z,3.71
2023-01-27T03:12:21.658Z,3.71
2023-01-27T03:17:43.891Z,3.70
2023-01-27T03:22:47.655Z,3.68
2023-01-27T03:27:53.072Z,3.67
2023-01-27T03:33:05.722Z,3.68
2023-01-27T03:38:39.599Z,3.67
2023-01-27T03:44:01.584Z,3.65
2023-01-27T03:49:10.514Z,3.65
2023-01-27T03:54:14.650Z,3.65
2023-01-27T03:59:18.323Z,3.67
2023-01-27T04:04:40.139Z,3.69
2023-01-27T04:09:43.328Z,3.73
2023-01-27T04:14:46.600Z,3.75
2023-01-27T04:19:49.829Z,3.74
2023-01-27T04:24:53.380Z,3.73
2023-01-27T04:29:57.378Z,3.74
2023-01-27T04:35:00.889Z,3.75
2023-01-27T04:40:04.806Z,3.73
2023-01-27T04:45:08.766Z,3.70
2023-01-27T04:50:14.600Z,3.68
2023-01-27T04:55:18.046Z,3.66
2023-01-27T05:00:22.007Z,3.66
2023-01-27T05:05:25.637Z,3.64
2023-01-27T05:10:29.367Z,3.64
2023-01-27T05:15:33.880Z,3.64
2023-01-27T05:20:37.247Z,3.63
2023-01-27T05:25:44.542Z,3.62
2023-01-27T05:30:48.144Z,3.61
2023-01-27T05:35:52.426Z,3.60
2023-01-27T05:41:02.490Z,3.60
2023-01-27T05:46:14.493Z,3.60
2023-01-27T05:51:19.975Z,3.59
2023-01-27T05:56:24.035Z,3.61
2023-01-27T06:01:30.725Z,3.61
2023-01-27T06:06:34.627Z,3.61
2023-01-27T06:11:37.975Z,3.60
2023-01-27T06:16:41.438Z,3.59
2023-01-27T06:21:45.121Z,3.58
2023-01-27T06:26:48.480Z,3.56
2023-01-27T06:31:51.913Z,3.55
2023-01-27T06:36:55.232Z,3.55
2023-01-27T06:41:58.696Z,3.55
2023-01-27T06:47:02.239Z,3.54
2023-01-27T06:52:05.726Z,3.53
2023-01-27T06:57:11.975Z,3.51
2023-01-27T07:02:15.354Z,3.51
2023-01-27T07:07:18.704Z,3.52
2023-01-27T07:12:22.445Z,3.53
2023-01-27T07:17:26.283Z,3.55
2023-01-27T07:22:33.410Z,3.56
2023-01-27T07:27:36.687Z,3.56
2023-01-27T07:32:40.311Z,3.56
2023-01-27T07:37:43.983Z,3.56
2023-01-27T07:42:48.597Z,3.59
2023-01-27T07:47:52.260Z,3.60
2023-01-27T07:53:02.866Z,3.62
2023-01-27T07:58:11.120Z,3.63
2023-01-27T08:03:26.458Z,3.62
2023-01-27T08:08:30.330Z,3.62
2023-01-27T08:13:35.733Z,3.63
2023-01-27T08:18:42.968Z,3.65
2023-01-27T08:23:48.421Z,3.67
2023-01-27T08:28:53.144Z,3.67
2023-01-27T08:33:59.057Z,3.69
2023-01-27T08:39:04.716Z,3.70
2023-01-27T08:44:11.003Z,3.72
2023-01-27T08:49:16.823Z,3.76
2023-01-27T08:54:23.191Z,3.79
2023-01-27T08:59:27.392Z,3.86
2023-01-27T09:04:32.661Z,3.91
2023-01-27T09:09:41.920Z,3.94
2023-01-27T09:14:46.113Z,3.96
2023-01-27T09:19:51.251Z,3.98
2023-01-27T09:24:55.658Z,4.00
2023-01-27T09:29:59.789Z,4.02
2023-01-27T09:35:05.377Z,4.02
2023-01-27T09:40:35.062Z,4.06
2023-01-27T09:46:13.279Z,4.08
2023-01-27T09:51:29.553Z,4.16
2023-01-27T09:56:45.039Z,4.22
2023-01-27T10:01:55.461Z,4.27
2023-01-27T10:07:38.087Z,4.30
2023-01-27T10:13:22.243Z,4.32
2023-01-27T10:18:46.363Z,4.36
2023-01-27T10:24:09.755Z,4.41
2023-01-27T10:29:33.433Z,4.44
2023-01-27T10:34:41.954Z,4.48
2023-01-27T10:40:00.291Z,4.56
2023-01-27T10:45:24.869Z,4.60
2023-01-27T10:50:37.127Z,4.62
2023-01-27T10:56:03.532Z,4.64
2023-01-27T11:01:26.205Z,4.65
2023-01-27T11:06:36.531Z,4.66
2023-01-27T11:11:47.058Z,4.67
2023-01-27T11:16:54.482Z,6.73
2023-01-27T11:22:07.531Z,9.95
2023-01-27T11:27:28.401Z,8.88
2023-01-27T11:32:47.907Z,7.77
2023-01-27T11:38:00.667Z,7.12
2023-01-27T11:43:17.484Z,6.62
2023-01-27T11:48:23.463Z,6.21
2023-01-27T11:53:37.137Z,5.85
2023-01-27T11:59:04.732Z,5.56
2023-01-27T12:04:21.581Z,5.35
2023-01-27T12:09:38.418Z,5.19
2023-01-27T12:14:49.218Z,5.06
2023-01-27T12:19:57.970Z,4.96
2023-01-27T12:25:04.997Z,4.88
2023-01-27T12:30:21.822Z,4.81
2023-01-27T12:35:35.370Z,4.75
2023-01-27T12:40:44.816Z,4.71
2023-01-27T12:46:13.527Z,4.68
2023-01-27T12:51:22.163Z,4.63
2023-01-27T12:56:26.206Z,4.62
2023-01-27T13:01:41.845Z,4.60
2023-01-27T13:06:49.818Z,4.60
2023-01-27T13:11:56.798Z,4.62
2023-01-27T13:17:01.507Z,4.61
2023-01-27T13:22:06.318Z,4.61
2023-01-27T13:27:17.588Z,4.59
2023-01-27T13:32:32.962Z,4.58
2023-01-27T13:37:53.557Z,4.56
2023-01-27T13:43:26.519Z,4.55
2023-01-27T13:48:41.875Z,4.56
2023-01-27T13:53:48.480Z,4.55
2023-01-27T13:59:11.417Z,4.54
2023-01-27T14:04:39.682Z,4.52
2023-01-27T14:10:20.106Z,4.61
2023-01-27T14:15:30.990Z,4.66
2023-01-27T14:20:37.820Z,4.65
2023-01-27T14:25:54.922Z,4.64
2023-01-27T14:31:24.879Z,4.63
2023-01-27T14:36:54.005Z,4.62
2023-01-27T14:42:14.424Z,4.59
2023-01-27T14:47:32.379Z,4.57
2023-01-27T14:52:42.165Z,4.53
2023-01-27T14:58:05.223Z,4.50
2023-01-27T15:03:33.136Z,4.49
2023-01-27T15:08:55.699Z,4.45
2023-01-27T15:14:24.115Z,4.39
2023-01-27T15:19:36.287Z,4.38
2023-01-27T15:25:27.107Z,4.38
2023-01-27T15:30:38.679Z,4.44
2023-01-27T15:35:42.509Z,4.44
2023-01-27T15:41:15.684Z,4.43
2023-01-27T15:46:26.026Z,4.41
2023-01-27T15:51:34.995Z,4.40
2023-01-27T15:56:49.167Z,4.38
2023-01-27T16:02:17.000Z,4.38
2023-01-27T16:07:32.978Z,4.36
2023-01-27T16:12:43.459Z,6.17
2023-01-27T16:18:00.905Z,9.76
2023-01-27T16:23:28.232Z,8.72
2023-01-27T16:28:34.660Z,7.51
2023-01-27T16:33:41.904Z,6.79
2023-01-27T16:38:47.286Z,6.34
2023-01-27T16:44:01.436Z,6.03
2023-01-27T16:49:20.455Z,5.67
2023-01-27T16:54:29.823Z,5.35
2023-01-27T16:59:39.004Z,5.09
2023-01-27T17:04:53.436Z,4.87
2023-01-27T17:10:00.438Z,4.70
2023-01-27T17:15:29.867Z,4.53
2023-01-27T17:20:38.120Z,4.39
2023-01-27T17:25:42.015Z,4.49
2023-01-27T17:30:47.422Z,4.54
2023-01-27T17:35:56.663Z,4.48
2023-01-27T17:41:03.659Z,4.42
2023-01-27T17:46:10.170Z,4.32
2023-01-27T17:51:20.385Z,4.24
2023-01-27T17:56:30.289Z,4.17
2023-01-27T18:01:35.216Z,4.16
2023-01-27T18:06:42.916Z,4.12
2023-01-27T18:11:57.455Z,4.09
2023-01-27T18:17:22.762Z,4.08
2023-01-27T18:22:28.365Z,4.13
2023-01-27T18:27:37.111Z,4.13
2023-01-27T18:32:44.337Z,4.09
2023-01-27T18:38:04.026Z,4.08
2023-01-27T18:43:10.596Z,4.07
2023-01-27T18:48:18.016Z,4.06
2023-01-27T18:53:22.439Z,4.09
2023-01-27T18:58:26.449Z,4.08
2023-01-27T19:03:35.250Z,4.03
2023-01-27T19:08:41.070Z,4.00
2023-01-27T19:13:46.348Z,3.98
2023-01-27T19:18:50.204Z,3.94
2023-01-27T19:26:20.842Z,3.97
2023-01-27T19:32:36.086Z,3.99
2023-01-27T19:38:52.996Z,3.98
2023-01-27T19:44:48.976Z,7.07
2023-01-27T19:51:04.371Z,8.96
2023-01-27T19:57:01.909Z,7.36
2023-01-27T20:03:17.940Z,6.48
2023-01-27T20:08:48.016Z,5.80
2023-01-27T20:14:14.559Z,5.40
2023-01-27T20:19:23.105Z,5.05
2023-01-27T20:32:04.900Z,4.48
2023-01-27T20:38:27.774Z,4.30
2023-01-27T20:44:59.545Z,4.18
2023-01-27T20:51:33.471Z,4.03
2023-01-27T20:57:31.776Z,3.94
2023-01-27T21:03:36.585Z,3.91
2023-01-27T21:09:54.551Z,3.87
2023-01-27T21:16:18.784Z,3.84
2023-01-27T21:22:38.539Z,3.82
2023-01-27T21:28:17.903Z,3.78
2023-01-27T21:34:31.985Z,3.76
2023-01-27T21:40:56.302Z,3.76
2023-01-27T21:46:40.673Z,3.73
2023-01-27T21:52:57.745Z,3.74
2023-01-27T22:02:23.114Z,3.71
2023-01-27T22:08:33.064Z,3.68
2023-01-27T22:14:09.818Z,3.69
2023-01-27T22:20:34.479Z,3.70
2023-01-27T22:26:51.989Z,3.67
2023-01-27T22:33:16.200Z,3.65
2023-01-27T22:39:30.590Z,3.66
2023-01-27T22:45:55.352Z,3.66
2023-01-27T22:52:09.643Z,3.64
2023-01-27T23:05:19.018Z,3.63
2023-01-27T23:11:25.009Z,3.62
2023-01-27T23:17:38.708Z,3.63
2023-01-27T23:23:13.019Z,3.65
2023-01-27T23:28:49.300Z,3.65
2023-01-27T23:35:13.559Z,3.63
2023-01-27T23:42:29.769Z,3.64
2023-01-27T23:48:08.298Z,3.63
